Latest Weather Observations for Tindal

IDD60801

Issued at 7:31 am CST Friday 23 June 2017 (issued every 30 minutes, with the page automatically refreshed every 10 minutes)

About weather observations | Map of weather stations | Latest weather observations for NT | Other Formats
Station Details ID: 014932 Name: TINDAL RAAF Lat: -14.52 Lon: 132.38 Height: 133.6 m
Data from the previous 72 hours. | See also: Recent months at Tindal
Date/Time
CST
Temp
°C
App
Temp
°C
Dew
Point
°C
Rel
Hum
%
Delta-T
°C
Wind Press
QNH
hPa
Press
MSL
hPa
Rain since
9am
mm
Dir  Spd
km/h
Gust
km/h
Spd
kts
Gust
kts
23/07:30am 16.3 16.3 14.1 87 1.3 SE 7 9 4 5 1015.9 1015.3 0.0
23/07:00am 15.5 14.5 13.5 88 1.1 SE 11 13 6 7 1015.4 1014.9 0.0
23/06:30am 15.7 14.7 13.4 86 1.3 SE 11 13 6 7 1015.2 1014.7 0.0
23/06:00am 15.9 15.0 13.6 86 1.3 SE 11 11 6 6 1015.1 1014.6 0.0
23/05:30am 16.0 14.6 13.5 85 1.4 SSE 13 13 7 7 1014.9 1014.4 0.0
23/05:00am 16.5 15.9 13.6 83 1.6 SSE 9 11 5 6 1015.0 1014.5 0.0
23/04:30am 16.6 16.0 13.5 82 1.8 SSE 9 11 5 6 1014.8 1014.3 0.0
23/04:00am 16.5 15.4 13.2 81 1.9 SSE 11 13 6 7 1014.8 1014.3 0.0
23/03:30am 16.7 15.6 13.0 79 2.1 SSE 11 11 6 6 1014.9 1014.4 0.0
23/03:00am 17.2 16.5 13.1 77 2.3 SSE 9 11 5 6 1015.2 1014.7 0.0
23/02:30am 17.5 16.4 13.0 75 2.5 SSE 11 11 6 6 1015.4 1014.9 0.0
23/02:00am 18.4 17.7 13.1 71 3.0 SSE 9 11 5 6 1015.6 1015.1 0.0
23/01:30am 18.5 17.6 12.7 69 3.3 SE 9 11 5 6 1015.8 1015.2 0.0
23/01:00am 18.6 17.6 12.4 67 3.5 SE 9 11 5 6 1016.0 1015.4 0.0
23/12:30am 18.8 17.9 12.5 67 3.5 SE 9 11 5 6 1016.0 1015.4 0.0
23/12:00am 19.0 18.0 12.3 65 3.8 SE 9 13 5 7 1016.0 1015.4 0.0
 
Date/Time
CST
Temp
°C
App
Temp
°C
Dew
Point
°C
Rel
Hum
%
Delta-T
°C
Wind Press
QNH
hPa
Press
MSL
hPa
Rain since
9am
mm
Dir  Spd
km/h
Gust
km/h
Spd
kts
Gust
kts
22/11:30pm 18.4 17.1 12.4 68 3.4 SE 11 13 6 7 1016.1 1015.5 0.0
22/11:00pm 18.6 17.6 12.4 67 3.5 SE 9 9 5 5 1016.1 1015.5 0.0
22/10:30pm 18.7 17.8 12.5 67 3.5 SE 9 11 5 6 1016.3 1015.7 0.0
22/10:00pm 19.3 18.4 12.6 65 3.8 SE 9 11 5 6 1016.3 1015.7 0.0
22/09:30pm 19.8 19.0 12.8 64 4.0 SSE 9 11 5 6 1016.2 1015.6 0.0
22/09:00pm 19.9 19.0 12.7 63 4.1 SE 9 9 5 5 1015.9 1015.3 0.0
22/08:30pm 20.2 19.4 12.9 63 4.2 SE 9 9 5 5 1015.6 1015.1 0.0
22/08:00pm 20.5 19.6 12.7 61 4.4 SE 9 9 5 5 1015.2 1014.7 0.0
22/07:30pm 21.4 20.9 12.8 58 4.9 SE 7 9 4 5 1014.8 1014.3 0.0
22/07:00pm 22.9 22.1 12.8 53 5.8 SE 9 9 5 5 1014.3 1013.8 0.0
22/06:30pm 25.4 24.1 11.2 41 8.1 SE 9 9 5 5 1013.9 1013.4 0.0
22/06:00pm 28.0 26.5 10.7 34 9.9 SE 9 13 5 7 1013.5 1013.0 0.0
22/05:30pm 29.6 27.1 9.7 29 11.2 SE 13 19 7 10 1013.2 1012.7 0.0
22/05:00pm 30.3 27.7 9.2 27 11.9 ESE 13 17 7 9 1013.1 1012.6 0.0
22/04:30pm 30.7 27.5 8.4 25 12.4 ESE 15 20 8 11 1013.0 1012.5 0.0
22/04:00pm 31.2 28.5 8.8 25 12.6 ESE 13 22 7 12 1013.1 1012.6 0.0
22/03:30pm 31.0 28.2 8.7 25 12.5 SE 13 20 7 11 1013.2 1012.7 0.0
22/03:00pm 30.9 27.7 8.6 25 12.4 ESE 15 24 8 13 1013.3 1012.8 0.0
22/02:30pm 30.6 27.9 8.9 26 12.2 ESE 13 24 7 13 1013.6 1013.1 0.0
22/02:00pm 30.0 26.9 9.0 27 11.7 E 15 26 8 14 1014.1 1013.6 0.0
22/01:30pm 30.0 26.8 10.0 29 11.4 SE 17 28 9 15 1014.4 1013.9 0.0
22/01:00pm 29.7 26.1 9.8 29 11.3 ESE 19 28 10 15 1014.9 1014.4 0.0
22/12:30pm 29.2 25.4 9.9 30 10.9 ESE 20 30 11 16 1015.4 1014.9 0.0
22/12:00pm 28.3 24.1 9.6 31 10.5 ESE 22 35 12 19 1015.9 1015.3 0.0
22/11:30am 28.1 24.3 9.9 32 10.2 ESE 20 30 11 16 1016.4 1015.8 0.0
22/11:00am 27.6 23.8 9.9 33 9.9 E 20 28 11 15 1016.9 1016.4 0.0
22/10:30am 25.3 22.7 9.2 36 8.8 ESE 13 20 7 11 1017.2 1016.7 0.0
22/10:00am 24.1 21.3 8.5 37 8.4 ESE 13 19 7 10 1017.4 1016.9 0.0
22/09:30am 21.7 19.6 8.2 42 7.1 ESE 9 15 5 8 1017.5 1017.0 0.0
22/09:00am 19.2 16.8 8.5 50 5.6 SE 11 13 6 7 1017.6 1017.1 0.0
22/08:30am 17.4 14.9 8.3 55 4.7 SE 11 13 6 7 1017.3 1016.8 0.0
22/08:00am 15.1 13.1 8.6 65 3.3 SE 9 11 5 6 1017.2 1016.7 0.0
22/07:30am 13.4 11.9 8.5 72 2.5 S 6 7 3 4 1017.0 1016.5 0.0
22/07:00am 13.7 11.2 8.3 70 2.7 SE 11 13 6 7 1016.5 1015.9 0.0
22/06:30am 14.4 11.6 8.6 68 2.9 ESE 13 15 7 8 1016.1 1015.5 0.0
22/06:00am 14.5 11.5 9.1 70 2.8 SE 15 17 8 9 1015.6 1015.1 0.0
22/05:30am 13.9 10.9 9.3 74 2.4 SE 15 17 8 9 1015.3 1014.8 0.0
22/05:00am 13.4 10.5 9.6 78 2.0 SE 15 15 8 8 1015.3 1014.8 0.0
22/04:30am 13.3 11.2 9.7 79 1.9 SSE 11 13 6 7 1015.3 1014.8 0.0
22/04:00am 13.4 10.9 9.8 79 1.9 SSE 13 13 7 7 1015.3 1014.8 0.0
22/03:30am 13.7 11.7 10.1 79 1.9 SE 11 11 6 6 1015.2 1014.7 0.0
22/03:00am 14.1 11.8 10.3 78 2.0 SSE 13 13 7 7 1015.4 1014.9 0.0
22/02:30am 13.9 12.0 10.5 80 1.8 SE 11 11 6 6 1015.6 1015.1 0.0
22/02:00am 15.5 14.0 10.5 72 2.7 S 9 9 5 5 1015.8 1015.2 0.0
22/01:30am 15.9 14.4 10.7 71 2.8 SSE 9 11 5 6 1015.9 1015.3 0.0
22/01:00am 16.2 14.4 10.7 70 2.9 SE 11 11 6 6 1016.0 1015.4 0.0
22/12:30am 17.1 15.6 10.7 66 3.4 SE 9 9 5 5 1016.1 1015.5 0.0
22/12:00am 17.3 16.3 11.1 67 3.4 ESE 7 9 4 5 1016.0 1015.4 0.0
 
Date/Time
CST
Temp
°C
App
Temp
°C
Dew
Point
°C
Rel
Hum
%
Delta-T
°C
Wind Press
QNH
hPa
Press
MSL
hPa
Rain since
9am
mm
Dir  Spd
km/h
Gust
km/h
Spd
kts
Gust
kts
21/11:30pm 16.8 15.5 11.3 70 3.0 SE 9 11 5 6 1016.1 1015.5 0.0
21/11:00pm 17.1 16.3 11.6 70 3.0 ESE 7 9 4 5 1016.2 1015.6 0.0
21/10:30pm 17.7 16.5 11.7 68 3.3 SE 9 11 5 6 1016.1 1015.5 0.0
21/10:00pm 18.3 16.9 12.1 67 3.4 SE 11 13 6 7 1016.1 1015.5 0.0
21/09:30pm 18.3 17.3 12.3 68 3.3 SE 9 9 5 5 1016.0 1015.4 0.0
21/09:00pm 19.2 18.3 12.5 65 3.8 SE 9 11 5 6 1015.9 1015.3 0.0
21/08:30pm 20.0 19.1 12.5 62 4.2 SE 9 9 5 5 1015.5 1015.0 0.0
21/08:00pm 20.5 20.0 12.5 60 4.5 ESE 7 9 4 5 1015.1 1014.6 0.0
21/07:30pm 22.1 21.1 12.4 54 5.5 ESE 9 9 5 5 1014.8 1014.3 0.0
21/07:00pm 24.8 23.0 11.0 42 7.8 ESE 11 15 6 8 1014.3 1013.8 0.0
21/06:30pm 26.3 24.3 10.0 36 9.1 ESE 11 13 6 7 1013.9 1013.4 0.0
21/06:00pm 28.2 25.8 9.9 32 10.3 ESE 13 17 7 9 1013.7 1013.2 0.0
21/05:30pm 29.6 27.2 10.2 30 11.0 ESE 13 17 7 9 1013.3 1012.8 0.0
21/05:00pm 30.3 27.4 9.8 28 11.6 ESE 15 22 8 12 1013.1 1012.6 0.0
21/04:30pm 30.7 27.2 10.1 28 11.8 ESE 19 26 10 14 1013.0 1012.5 0.0
21/04:00pm 30.7 27.9 10.1 28 11.8 E 15 22 8 12 1013.0 1012.5 0.0
21/03:30pm 31.1 28.4 10.4 28 11.9 ESE 15 28 8 15 1013.0 1012.5 0.0
21/03:00pm 30.5 26.5 10.5 29 11.5 ESE 22 30 12 16 1013.2 1012.7 0.0
21/02:30pm 30.6 26.6 10.5 29 11.5 E 22 33 12 18 1013.5 1013.0 0.0
21/02:00pm 30.3 25.9 10.3 29 11.4 SE 24 32 13 17 1013.9 1013.4 0.0
21/01:30pm 29.8 26.4 11.3 32 10.7 E 20 32 11 17 1014.4 1013.9 0.0
21/01:00pm 29.4 25.3 11.5 33 10.4 ESE 24 32 13 17 1015.0 1014.5 0.0
21/12:30pm 29.3 26.2 12.3 35 10.0 E 20 30 11 16 1015.5 1015.0 0.0
21/12:00pm 28.9 24.6 11.9 35 9.9 ESE 26 39 14 21 1016.1 1015.5 0.0
21/11:30am 28.4 24.6 12.3 37 9.4 ESE 24 35 13 19 1016.5 1015.9 0.0
21/11:00am 27.5 23.2 13.1 41 8.5 ESE 28 43 15 23 1016.8 1016.2 0.0
21/10:30am 26.6 23.7 14.0 46 7.5 ESE 22 35 12 19 1017.0 1016.5 0.0
21/10:00am 25.5 23.1 14.3 50 6.7 ESE 20 28 11 15 1017.0 1016.5 0.0
21/09:30am 23.9 21.8 14.6 56 5.5 ESE 19 28 10 15 1017.2 1016.7 0.0
21/09:00am 22.3 21.0 15.9 67 3.9 ESE 17 22 9 12 1017.1 1016.6 0.0
21/08:30am 20.4 18.5 15.8 75 2.8 ESE 20 30 11 16 1016.9 1016.4 0.0
21/08:00am 17.4 17.0 12.5 73 2.7 SE 6 7 3 4 1016.7 1016.1 0.0
21/07:30am 15.3 14.6 11.5 78 2.1 ESE 6 9 3 5 1016.5 1015.9 0.0
21/07:00am 14.6 13.7 11.2 80 1.8 ESE 7 7 4 4 1016.2 1015.6 0.0
21/06:30am 15.6 14.7 11.2 75 2.4 SSE 7 9 4 5 1015.9 1015.3 0.0
21/06:00am 16.1 15.2 11.3 73 2.6 ESE 7 9 4 5 1015.4 1014.9 0.0
21/05:30am 16.5 15.2 11.4 72 2.8 SE 9 13 5 7 1015.1 1014.6 0.0
21/05:00am 17.0 15.1 11.7 71 2.9 SE 13 17 7 9 1014.9 1014.4 0.0
21/04:30am 16.9 15.4 12.0 73 2.7 SE 11 17 6 9 1014.7 1014.2 0.0
21/04:00am 16.2 15.1 12.0 76 2.3 SSE 9 11 5 6 1014.6 1014.1 0.0
21/03:30am 16.7 16.1 12.3 75 2.4 SSE 7 9 4 5 1014.7 1014.2 0.0
21/03:00am 16.7 15.8 12.5 76 2.3 SSE 9 11 5 6 1014.8 1014.3 0.0
21/02:30am 17.1 16.2 12.6 75 2.5 SSE 9 9 5 5 1015.0 1014.5 0.0
21/02:00am 17.8 17.3 12.7 72 2.9 SE 7 9 4 5 1015.2 1014.7 0.0
21/01:30am 18.6 17.1 13.0 70 3.2 SE 13 15 7 8 1015.5 1015.0 0.0
21/01:00am 17.8 16.8 13.3 75 2.6 SE 11 17 6 9 1015.6 1015.1 0.0
21/12:30am 17.6 16.6 13.5 77 2.3 SE 11 11 6 6 1015.6 1015.1 0.0
21/12:00am 17.9 17.0 13.6 76 2.5 SE 11 11 6 6 1015.6 1015.1 0.0
 
Date/Time
CST
Temp
°C
App
Temp
°C
Dew
Point
°C
Rel
Hum
%
Delta-T
°C
Wind Press
QNH
hPa
Press
MSL
hPa
Rain since
9am
mm
Dir  Spd
km/h
Gust
km/h
Spd
kts
Gust
kts
20/11:30pm 18.8 18.7 13.9 73 2.8 SE 7 9 4 5 1015.8 1015.2 0.0
20/11:00pm 19.4 18.6 14.0 71 3.1 SSE 11 13 6 7 1016.0 1015.4 0.0
20/10:30pm 20.4 20.4 14.1 67 3.7 ESE 7 9 4 5 1015.9 1015.3 0.0
20/10:00pm 21.2 21.3 14.4 65 4.0 ESE 7 11 4 6 1015.9 1015.3 0.0
20/09:30pm 21.0 20.7 14.4 66 3.9 ESE 9 11 5 6 1015.6 1015.1 0.0
20/09:00pm 21.0 20.7 14.4 66 3.9 SE 9 13 5 7 1015.2 1014.7 0.0
20/08:30pm 20.9 20.6 14.5 67 3.8 ESE 9 11 5 6 1014.8 1014.3 0.0
20/08:00pm 21.6 21.9 14.5 64 4.2 SE 6 7 3 4 1014.4 1013.9 0.0
20/07:30pm 22.9 23.0 14.5 59 5.0 ESE 7 9 4 5 1014.2 1013.7 0.0
20/07:00pm 24.2 24.2 14.3 54 5.9 ESE 7 9 4 5 1013.8 1013.3 0.0
20/06:30pm 26.3 25.8 13.8 46 7.4 SE 9 11 5 6 1013.6 1013.1 0.0
20/06:00pm 28.5 27.4 13.2 39 9.1 ESE 11 15 6 8 1013.4 1012.9 0.0
20/05:30pm 30.0 28.4 12.9 35 10.2 ESE 13 20 7 11 1013.1 1012.6 0.0
20/05:00pm 30.6 27.7 13.0 34 10.5 SE 20 28 11 15 1012.7 1012.2 0.0
20/04:30pm 31.0 29.0 12.8 32 10.9 ESE 15 24 8 13 1012.5 1012.0 0.0
20/04:00pm 31.1 28.6 13.4 34 10.7 ESE 19 26 10 14 1012.4 1011.9 0.0
20/03:30pm 30.9 28.0 12.8 33 10.8 E 20 28 11 15 1012.4 1011.9 0.0
20/03:00pm 31.2 28.6 13.9 35 10.5 ESE 20 30 11 16 1012.6 1012.1 0.0
20/02:30pm 30.7 27.8 13.9 36 10.2 ESE 22 35 12 19 1012.8 1012.3 0.0
20/02:00pm 30.4 27.7 14.5 38 9.7 ESE 22 33 12 18 1013.2 1012.7 0.0
20/01:30pm 30.1 27.6 14.2 38 9.7 ESE 20 35 11 19 1013.7 1013.2 0.0
20/01:00pm 29.6 27.8 16.1 44 8.4 ESE 20 35 11 19 1014.1 1013.6 0.0
20/12:30pm 28.9 26.1 15.4 44 8.3 E 24 35 13 19 1014.8 1014.3 0.0
20/12:00pm 28.4 24.8 15.3 45 8.0 E 28 35 15 19 1015.3 1014.8 0.0
20/11:30am 27.1 25.0 16.1 51 6.8 E 22 33 12 18 1015.8 1015.2 0.0
20/11:00am 26.3 24.8 16.8 56 5.9 E 20 30 11 16 1016.1 1015.5 0.0
20/10:30am 25.2 24.3 17.7 63 4.7 ESE 19 26 10 14 1016.4 1015.8 0.0
20/10:00am 24.4 24.0 18.1 68 4.0 ESE 17 22 9 12 1016.3 1015.7 0.0
20/09:30am 23.3 23.0 17.3 69 3.7 SE 15 20 8 11 1016.5 1015.9 0.0
20/09:00am 21.6 21.0 15.7 69 3.5 SE 13 19 7 10 1016.5 1015.9 0.0
20/08:30am 19.4 18.3 14.2 72 3.0 SE 13 19 7 10 1016.2 1015.6 0.0
20/08:00am 17.7 17.2 12.8 73 2.8 SE 7 9 4 5 1015.8 1015.2 0.0

Other Formats:

Comma delimited format used in spreadsheet applications
http://www.bom.gov.au/fwo/IDD60801/IDD60801.94131.axf

JavaScript Object Notation format (JSON) in row-major order
http://www.bom.gov.au/fwo/IDD60801/IDD60801.94131.json